Time;durP1;ratioP1;P1;durP2;ratioP2;P2;SDS_P1;SDS_P2;PMS_P1;PMS_P2;Temp;Humidity;BMP_temperature;BMP_pressure;BME280_temperature;BME280_humidity;BME280_pressure;Samples;Min_cycle;Max_cycle;Signal;HPM_P1;HPM_P2
2021/05/09 00:01:29;;;;;;;3.60;2.80;;;;;;;7.11;100.00;98745.72;10499228;28;20210;-74
2021/05/09 00:06:48;;;;;;;2.10;2.00;;;;;;;7.07;100.00;98741.41;10500371;28;20174;-75
2021/05/09 00:12:08;;;;;;;2.00;1.80;;;;;;;6.97;100.00;98737.47;10499115;28;20194;-75
2021/05/09 00:17:27;;;;;;;3.57;2.90;;;;;;;6.89;100.00;98724.13;10498617;28;20171;-75
2021/05/09 00:22:46;;;;;;;2.17;1.97;;;;;;;6.86;100.00;98724.91;10499728;28;20182;-74
2021/05/09 00:28:06;;;;;;;2.03;1.73;;;;;;;6.84;100.00;98728.00;10499009;28;20297;-75
2021/05/09 00:33:25;;;;;;;7.53;2.20;;;;;;;6.75;100.00;98732.25;10497956;28;20281;-75
2021/05/09 00:38:44;;;;;;;2.00;1.90;;;;;;;6.70;100.00;98729.91;10497924;28;20179;-76
2021/05/09 00:44:03;;;;;;;3.03;2.83;;;;;;;6.67;100.00;98725.19;10498254;28;20178;-75
2021/05/09 00:49:23;;;;;;;4.17;3.33;;;;;;;6.66;100.00;98724.38;10497289;28;20191;-76
2021/05/09 00:54:52;;;;;;;3.87;1.87;;;;;;;6.64;100.00;98721.28;10497994;28;20222;-78
2021/05/09 01:00:13;;;;;;;1.50;1.40;;;;;;;6.50;100.00;98717.66;10497974;28;20174;-74
2021/05/09 01:05:33;;;;;;;2.50;2.30;;;;;;;6.28;100.00;98715.97;10498186;28;20257;-74
2021/05/09 01:10:52;;;;;;;2.63;1.53;;;;;;;6.30;100.00;98708.16;10496801;28;20182;-73
2021/05/09 01:16:10;;;;;;;7.00;1.73;;;;;;;6.13;100.00;98708.84;10494887;28;20209;-75
2021/05/09 01:21:30;;;;;;;13.53;2.17;;;;;;;6.07;100.00;98704.09;10496786;28;20200;-74
2021/05/09 01:26:49;;;;;;;3.60;2.73;;;;;;;5.99;100.00;98703.25;10496289;28;20689;-74
2021/05/09 01:32:08;;;;;;;3.03;2.70;;;;;;;5.97;100.00;98700.13;10496173;28;20203;-73
2021/05/09 01:37:27;;;;;;;9.00;2.90;;;;;;;5.96;100.00;98684.09;10497533;28;20171;-75
2021/05/09 01:42:46;;;;;;;2.40;2.20;;;;;;;6.02;100.00;98697.03;10497557;28;20244;-76
2021/05/09 01:48:05;;;;;;;1.23;1.13;;;;;;;5.87;100.00;98678.19;10496191;28;20249;-73
2021/05/09 01:53:24;;;;;;;2.50;2.17;;;;;;;5.79;100.00;98677.34;10496868;28;20285;-75
2021/05/09 01:58:43;;;;;;;2.33;2.13;;;;;;;5.74;100.00;98658.56;10505399;28;20211;-73
2021/05/09 02:04:02;;;;;;;2.90;2.00;;;;;;;5.70;100.00;98652.28;10503761;28;20533;-73
2021/05/09 02:09:21;;;;;;;2.73;2.13;;;;;;;5.70;100.00;98662.41;10505051;28;20174;-73
2021/05/09 02:14:40;;;;;;;3.43;2.57;;;;;;;5.70;100.00;98651.50;10504233;28;20206;-74
2021/05/09 02:20:01;;;;;;;1.87;1.77;;;;;;;5.67;100.00;98646.81;10502224;28;20174;-74
2021/05/09 02:25:19;;;;;;;4.80;2.77;;;;;;;5.66;100.00;98656.16;10504273;28;20174;-75
2021/05/09 02:30:38;;;;;;;3.23;2.30;;;;;;;5.51;100.00;98657.97;10502917;28;20186;-74
2021/05/09 02:35:57;;;;;;;3.67;2.60;;;;;;;5.44;100.00;98648.16;10503404;28;20194;-75
2021/05/09 02:41:16;;;;;;;3.20;2.90;;;;;;;5.51;100.00;98649.78;10502992;28;20253;-76
2021/05/09 02:46:36;;;;;;;2.57;1.23;;;;;;;5.50;100.00;98648.22;10502267;28;20186;-75
2021/05/09 02:51:55;;;;;;;3.73;1.50;;;;;;;5.28;100.00;98653.06;10502217;28;20206;-74
2021/05/09 02:57:14;;;;;;;2.77;1.63;;;;;;;5.25;100.00;98656.56;10503112;28;20240;-74
2021/05/09 03:02:33;;;;;;;2.60;1.53;;;;;;;5.18;100.00;98654.53;10500738;28;20167;-73
2021/05/09 03:07:52;;;;;;;6.10;1.40;;;;;;;5.17;100.00;98665.81;10502141;28;20179;-74
2021/05/09 03:13:11;;;;;;;1.50;1.40;;;;;;;5.03;100.00;98671.09;10502378;28;20218;-75
2021/05/09 03:18:30;;;;;;;2.23;2.03;;;;;;;5.03;100.00;98669.19;10500145;28;20171;-74
2021/05/09 03:23:48;;;;;;;3.27;1.87;;;;;;;5.03;100.00;98679.28;10502196;28;20214;-76
2021/05/09 03:29:07;;;;;;;2.30;2.03;;;;;;;5.06;100.00;98692.19;10501535;28;20218;-73
2021/05/09 03:34:26;;;;;;;3.53;1.80;;;;;;;4.98;100.00;98691.28;10500231;28;20206;-75
2021/05/09 03:39:45;;;;;;;1.97;1.87;;;;;;;4.98;100.00;98695.97;10501456;28;20174;-75
2021/05/09 03:45:05;;;;;;;2.17;1.90;;;;;;;5.03;100.00;98692.91;10501346;28;20179;-73
2021/05/09 03:50:25;;;;;;;2.43;1.93;;;;;;;5.15;100.00;98696.16;10500989;28;20579;-75
2021/05/09 03:55:43;;;;;;;3.07;1.73;;;;;;;5.09;100.00;98689.47;10500254;28;20207;-73
2021/05/09 04:01:02;;;;;;;3.90;3.50;;;;;;;5.10;100.00;98684.81;10498296;28;20632;-76
2021/05/09 04:06:21;;;;;;;2.70;2.07;;;;;;;5.12;100.00;98686.03;10499523;28;20182;-73
2021/05/09 04:11:40;;;;;;;2.93;1.83;;;;;;;5.23;100.00;98680.69;10500098;28;20621;-74
2021/05/09 04:17:00;;;;;;;2.37;2.17;;;;;;;5.28;100.00;98683.88;10497743;28;20637;-74
2021/05/09 04:22:19;;;;;;;3.47;2.33;;;;;;;5.32;100.00;98684.66;10498129;28;20186;-74
2021/05/09 04:27:38;;;;;;;3.00;1.93;;;;;;;5.42;100.00;98685.91;10499161;28;20708;-73
2021/05/09 04:33:00;;;;;;;4.70;1.90;;;;;;;5.55;100.00;98679.81;10497912;28;20202;-73
2021/05/09 04:38:20;;;;;;;3.43;2.43;;;;;;;5.68;100.00;98681.13;10498091;28;20660;-73
2021/05/09 04:43:39;;;;;;;1.60;1.50;;;;;;;5.71;100.00;98666.72;10498959;28;20178;-74
2021/05/09 04:48:59;;;;;;;5.03;2.30;;;;;;;5.82;100.00;98675.81;10497586;28;20253;-74
2021/05/09 04:54:17;;;;;;;2.33;1.17;;;;;;;5.91;100.00;98682.50;10497243;28;20206;-74
2021/05/09 04:59:37;;;;;;;3.30;3.00;;;;;;;6.09;100.00;98677.97;10498391;28;20246;-74
2021/05/09 05:04:56;;;;;;;2.67;2.40;;;;;;;6.27;100.00;98680.81;10496954;28;20191;-73
2021/05/09 05:10:15;;;;;;;2.33;2.13;;;;;;;6.50;100.00;98680.19;10498036;28;20178;-74
2021/05/09 05:15:34;;;;;;;6.13;2.57;;;;;;;6.74;100.00;98676.00;10496234;28;20210;-73
2021/05/09 05:21:06;;;;;;;7.00;4.23;;;;;;;7.00;100.00;98683.94;10497807;28;20266;-73
2021/05/09 05:26:26;;;;;;;2.90;2.30;;;;;;;7.43;100.00;98676.25;10497280;28;20226;-73
2021/05/09 05:31:45;;;;;;;2.30;2.10;;;;;;;7.90;100.00;98681.41;10495862;28;20234;-73
2021/05/09 05:37:04;;;;;;;2.00;1.80;;;;;;;8.35;100.00;98675.13;10496631;28;20637;-76
2021/05/09 05:42:23;;;;;;;3.13;1.30;;;;;;;8.76;100.00;98661.31;10496578;28;20174;-75
2021/05/09 05:47:42;;;;;;;4.63;3.00;;;;;;;9.22;100.00;98670.09;10495033;28;20191;-76
2021/05/09 05:53:02;;;;;;;3.43;2.60;;;;;;;9.65;100.00;98671.44;10497062;28;20296;-77
2021/05/09 05:58:22;;;;;;;3.77;3.37;;;;;;;10.11;100.00;98685.63;10497248;28;20210;-76
2021/05/09 06:03:41;;;;;;;3.37;3.10;;;;;;;10.57;100.00;98673.81;10495815;28;20174;-78
2021/05/09 06:09:02;;;;;;;10.00;2.90;;;;;;;10.90;100.00;98683.25;10496015;28;20179;-78
2021/05/09 06:14:22;;;;;;;2.50;1.90;;;;;;;11.39;100.00;98675.94;10495456;28;20693;-76
2021/05/09 06:19:41;;;;;;;3.97;2.63;;;;;;;11.83;100.00;98677.69;10495627;28;20163;-77
2021/05/09 06:25:00;;;;;;;2.67;2.43;;;;;;;12.14;100.00;98672.44;10496459;28;20535;-78
2021/05/09 06:30:20;;;;;;;2.47;1.43;;;;;;;12.62;100.00;98667.25;10494740;28;20260;-77
2021/05/09 06:35:40;;;;;;;2.40;2.20;;;;;;;13.15;100.00;98669.81;10494624;28;20579;-76
2021/05/09 06:40:59;;;;;;;3.40;2.53;;;;;;;13.45;100.00;98666.78;10495365;28;20175;-78
2021/05/09 06:46:17;;;;;;;3.43;3.00;;;;;;;13.72;99.57;98655.13;10502273;28;20604;-77
2021/05/09 06:51:37;;;;;;;3.10;2.80;;;;;;;14.12;93.38;98652.97;10502333;28;20569;-77
2021/05/09 06:56:56;;;;;;;3.03;2.83;;;;;;;14.40;91.96;98644.75;10503338;28;20190;-78
2021/05/09 07:02:14;;;;;;;2.33;2.13;;;;;;;14.99;89.37;98650.66;10501635;28;20204;-76
2021/05/09 07:07:49;;;;;;;3.73;2.70;;;;;;;15.35;87.54;98661.06;10501711;28;20167;-75
2021/05/09 07:13:09;;;;;;;3.23;2.80;;;;;;;15.87;81.56;98653.13;10501383;28;20669;-77
2021/05/09 07:18:29;;;;;;;2.73;2.50;;;;;;;16.17;65.16;98650.56;10500187;28;20633;-76
2021/05/09 07:23:48;;;;;;;2.73;2.43;;;;;;;16.93;64.70;98652.69;10502225;28;20637;-76
2021/05/09 07:29:07;;;;;;;2.57;2.10;;;;;;;17.73;61.69;98649.66;10500451;28;20210;-74
2021/05/09 07:34:26;;;;;;;3.37;1.50;;;;;;;18.38;58.52;98644.63;10500315;28;20214;-74
2021/05/09 07:39:45;;;;;;;2.60;2.40;;;;;;;18.83;55.12;98639.88;10500582;28;20174;-75
2021/05/09 07:45:05;;;;;;;2.17;1.93;;;;;;;19.28;54.27;98648.25;10500349;28;20174;-75
2021/05/09 07:50:26;;;;;;;2.90;1.97;;;;;;;19.92;52.92;98632.84;10500028;28;20179;-73
2021/05/09 07:55:45;;;;;;;2.63;2.10;;;;;;;19.97;52.16;98627.44;10500114;28;20202;-75
2021/05/09 08:01:04;;;;;;;1.97;1.70;;;;;;;20.22;51.36;98616.56;10498044;28;20182;-75
2021/05/09 08:06:23;;;;;;;2.63;1.90;;;;;;;20.35;50.58;98611.56;10499499;28;20182;-75
2021/05/09 08:11:42;;;;;;;2.10;2.00;;;;;;;21.40;49.26;98606.75;10500035;28;20179;-75
2021/05/09 08:17:01;;;;;;;2.20;1.80;;;;;;;21.86;46.30;98607.78;10498741;28;20178;-75
2021/05/09 08:22:20;;;;;;;2.53;2.30;;;;;;;22.05;46.74;98598.66;10499787;28;20271;-75
2021/05/09 08:27:39;;;;;;;1.83;1.60;;;;;;;22.69;45.45;98594.47;10499064;28;20226;-76
2021/05/09 08:32:59;;;;;;;3.00;2.40;;;;;;;22.97;43.12;98580.75;10497922;28;20238;-75
2021/05/09 08:38:18;;;;;;;2.03;1.83;;;;;;;23.43;43.61;98569.00;10499211;28;20186;-76
2021/05/09 08:43:37;;;;;;;2.33;1.97;;;;;;;24.02;42.38;98560.81;10499039;28;20186;-76
2021/05/09 08:48:57;;;;;;;1.90;1.47;;;;;;;24.70;42.82;98574.19;10497551;28;20174;-75
2021/05/09 08:54:16;;;;;;;8.30;2.20;;;;;;;25.07;39.96;98558.69;10489130;28;20215;-75
2021/05/09 08:59:36;;;;;;;2.17;1.97;;;;;;;25.29;40.56;98544.66;10498131;28;20637;-78
2021/05/09 09:04:56;;;;;;;1.80;1.67;;;;;;;26.00;40.25;98541.84;10496558;28;20553;-76
2021/05/09 09:10:33;;;;;;;2.13;1.93;;;;;;;26.41;38.67;98531.50;10498040;28;20253;-77
2021/05/09 09:16:00;;;;;;;1.70;1.60;;;;;;;27.01;37.93;98521.97;10496210;28;20214;-75
2021/05/09 09:21:31;;;;;;;2.77;2.00;;;;;;;27.05;37.49;98509.13;10497776;28;20183;-76
2021/05/09 09:26:52;;;;;;;1.73;1.63;;;;;;;27.78;37.31;98503.13;10496305;28;20226;-75
2021/05/09 09:32:13;;;;;;;3.53;2.13;;;;;;;27.41;35.35;98498.56;10496312;28;20252;-77
2021/05/09 09:37:34;;;;;;;2.77;1.70;;;;;;;27.63;37.90;98493.50;10496592;28;20252;-78
2021/05/09 09:42:53;;;;;;;2.17;1.97;;;;;;;28.02;36.90;98488.25;10497092;28;20249;-77
2021/05/09 09:48:12;;;;;;;1.70;1.60;;;;;;;28.59;36.12;98480.09;10495863;28;20198;-75
2021/05/09 09:53:39;;;;;;;2.47;2.27;;;;;;;29.24;35.27;98475.50;10496389;28;20286;-76
2021/05/09 09:59:03;;;;;;;2.83;1.70;;;;;;;29.81;35.11;98466.31;10496946;28;20166;-77
2021/05/09 10:04:22;;;;;;;2.03;1.80;;;;;;;30.00;34.68;98464.94;10494203;28;20206;-77
2021/05/09 10:09:41;;;;;;;2.03;1.93;;;;;;;30.26;34.29;98451.50;10496897;28;20653;-76
2021/05/09 10:15:02;;;;;;;2.00;1.90;;;;;;;30.47;33.50;98449.53;10496891;28;20178;-77
2021/05/09 10:20:22;;;;;;;1.70;1.60;;;;;;;30.09;32.52;98439.72;10502909;28;20369;-76
2021/05/09 10:26:02;;;;;;;1.43;1.33;;;;;;;29.75;34.60;98423.88;10517195;28;20575;-77
2021/05/09 10:31:28;;;;;;;1.87;1.77;;;;;;;30.03;32.98;98419.22;10501944;28;20204;-77
2021/05/09 10:36:47;;;;;;;1.53;1.40;;;;;;;30.76;32.64;98400.09;10503034;28;20265;-76
2021/05/09 10:42:16;;;;;;;2.50;1.87;;;;;;;31.59;31.20;98390.25;10502723;28;20175;-78
2021/05/09 10:47:36;;;;;;;1.53;1.43;;;;;;;32.03;29.50;98390.56;10501334;28;20174;-78
2021/05/09 10:52:55;;;;;;;1.83;1.40;;;;;;;31.19;30.70;98380.44;10502396;28;20222;-78
2021/05/09 10:58:17;;;;;;;1.53;1.43;;;;;;;31.07;29.45;98368.59;10503069;28;20182;-76
2021/05/09 11:03:42;;;;;;;1.63;1.53;;;;;;;31.05;29.74;98357.03;10501588;28;20210;-77
2021/05/09 11:09:02;;;;;;;1.73;1.50;;;;;;;31.54;29.53;98354.22;10502844;28;20175;-77
2021/05/09 11:14:22;;;;;;;2.73;1.20;;;;;;;31.14;28.63;98350.84;10502667;28;20175;-77
2021/05/09 11:19:44;;;;;;;2.30;2.10;;;;;;;31.38;28.07;98347.63;10501079;28;20505;-79
2021/05/09 11:25:04;;;;;;;3.00;1.70;;;;;;;32.17;28.33;98332.22;10500356;28;20668;-77
2021/05/09 11:30:36;;;;;;;1.70;1.60;;;;;;;31.55;29.09;98324.47;10499714;28;20227;-77
2021/05/09 11:35:55;;;;;;;1.60;1.50;;;;;;;32.28;28.51;98319.72;10501717;28;20175;-77
2021/05/09 11:41:14;;;;;;;1.40;1.30;;;;;;;32.17;26.55;98315.13;10500700;28;20621;-76
2021/05/09 11:46:34;;;;;;;1.70;1.27;;;;;;;31.44;26.86;98307.66;10499624;28;20202;-77
2021/05/09 11:51:59;;;;;;;1.33;1.23;;;;;;;31.42;26.87;98293.28;10501167;28;20199;-77
2021/05/09 11:57:20;;;;;;;1.30;1.00;;;;;;;31.12;27.13;98293.03;10499962;28;20179;-78
2021/05/09 12:02:44;;;;;;;1.23;1.13;;;;;;;30.00;28.09;98289.06;10498178;28;20212;-79
2021/05/09 12:08:04;;;;;;;1.30;1.00;;;;;;;31.17;26.90;98269.41;10500387;28;20175;-79
2021/05/09 12:13:23;;;;;;;1.60;1.40;;;;;;;32.09;25.23;98257.41;10499007;28;20179;-77
2021/05/09 12:18:42;;;;;;;1.20;0.93;;;;;;;31.94;25.17;98251.66;10498830;28;20174;-77
2021/05/09 12:24:03;;;;;;;3.00;1.20;;;;;;;29.87;28.85;98245.75;10499598;28;20206;-78
2021/05/09 12:29:23;;;;;;;1.50;1.33;;;;;;;32.04;26.31;98235.56;10498656;28;20240;-78
2021/05/09 12:35:07;;;;;;;1.63;1.27;;;;;;;31.35;26.26;98222.88;10496791;28;20652;-78
2021/05/09 12:40:29;;;;;;;2.20;1.20;;;;;;;30.25;27.90;98210.84;10498492;28;20202;-79
2021/05/09 12:45:52;;;;;;;1.30;1.13;;;;;;;31.76;27.06;98215.72;10499312;28;20206;-78
2021/05/09 12:51:15;;;;;;;1.77;1.10;;;;;;;30.57;27.98;98200.75;10499877;28;20638;-78
2021/05/09 12:56:34;;;;;;;4.83;1.47;;;;;;;31.69;26.60;98201.50;10498849;28;20175;-77
2021/05/09 13:02:00;;;;;;;2.07;1.40;;;;;;;31.34;26.79;98207.19;10496649;28;20220;-77
2021/05/09 13:07:21;;;;;;;1.40;1.30;;;;;;;32.33;25.39;98184.97;10497734;28;20528;-77
2021/05/09 13:12:41;;;;;;;1.13;1.03;;;;;;;31.86;25.95;98170.44;10496760;28;20266;-77
2021/05/09 13:18:02;;;;;;;2.47;1.23;;;;;;;31.62;27.11;98176.63;10495856;28;20174;-76
2021/05/09 13:23:22;;;;;;;1.73;1.23;;;;;;;30.87;26.59;98170.50;10496247;28;20281;-76
2021/05/09 13:28:42;;;;;;;1.17;1.00;;;;;;;31.15;27.34;98164.06;10489369;28;20689;-77
2021/05/09 13:34:02;;;;;;;1.87;1.67;;;;;;;32.05;25.79;98151.69;10483784;28;20191;-78
2021/05/09 13:39:21;;;;;;;1.43;1.30;;;;;;;32.11;25.52;98154.38;10475580;28;20274;-78
2021/05/09 13:44:40;;;;;;;1.20;1.10;;;;;;;32.18;25.87;98151.56;10474016;28;20207;-78
2021/05/09 13:49:59;;;;;;;2.00;1.70;;;;;;;31.44;26.14;98140.69;10467701;28;20179;-78
2021/05/09 13:55:18;;;;;;;1.70;1.53;;;;;;;31.84;25.87;98133.25;10494994;28;20549;-78
2021/05/09 14:00:37;;;;;;;1.87;1.43;;;;;;;31.58;26.09;98121.44;10483592;28;20191;-79
2021/05/09 14:05:56;;;;;;;1.30;1.10;;;;;;;30.50;26.68;98132.53;10491253;28;20302;-78
2021/05/09 14:11:15;;;;;;;1.40;1.07;;;;;;;29.93;27.39;98124.44;10490407;28;20183;-77
2021/05/09 14:16:34;;;;;;;1.50;1.40;;;;;;;29.53;28.43;98115.28;10476489;28;20220;-78
2021/05/09 14:21:53;;;;;;;1.90;1.67;;;;;;;29.72;28.32;98115.13;10477793;28;20187;-78
2021/05/09 14:27:12;;;;;;;3.47;2.90;;;;;;;29.34;28.28;98114.69;10478897;28;20227;-77
2021/05/09 14:32:31;;;;;;;8.67;7.73;;;;;;;29.42;28.48;98106.28;10486945;28;20187;-78
2021/05/09 14:37:50;;;;;;;5.23;4.63;;;;;;;29.54;28.37;98107.56;10486468;28;20170;-77
2021/05/09 14:43:10;;;;;;;22.13;14.50;;;;;;;29.66;29.54;98103.16;10491435;28;20202;-77
2021/05/09 14:48:30;;;;;;;4.00;3.70;;;;;;;29.71;29.11;98096.59;10479044;28;20179;-77
2021/05/09 14:53:48;;;;;;;12.60;7.63;;;;;;;30.02;29.55;98096.34;10489491;28;20202;-78
2021/05/09 14:59:07;;;;;;;12.90;7.90;;;;;;;30.25;29.17;98081.03;10473070;28;20239;-78
2021/05/09 15:04:27;;;;;;;2.63;2.03;;;;;;;30.74;28.33;98078.16;10487748;28;20203;-77
2021/05/09 15:09:46;;;;;;;1.60;1.50;;;;;;;32.15;26.23;98067.28;10486833;28;20183;-77
2021/05/09 15:15:06;;;;;;;3.77;3.47;;;;;;;32.97;26.32;98063.56;10471826;28;20187;-77
2021/05/09 15:20:25;;;;;;;1.30;1.17;;;;;;;32.28;25.91;98064.25;10480223;28;20191;-78
2021/05/09 15:25:44;;;;;;;2.47;1.37;;;;;;;32.54;25.62;98058.16;10458473;28;20211;-78
2021/05/09 15:31:03;;;;;;;3.53;2.43;;;;;;;33.01;25.93;98061.09;10457934;28;20168;-78
2021/05/09 15:36:22;;;;;;;1.20;1.10;;;;;;;32.47;24.90;98033.31;10459956;28;20207;-77
2021/05/09 15:41:41;;;;;;;2.80;1.20;;;;;;;32.15;25.82;98044.50;10459677;28;20199;-77
2021/05/09 15:47:01;;;;;;;4.40;4.03;;;;;;;31.51;26.42;98033.97;10457282;28;20188;-78
2021/05/09 15:52:22;;;;;;;1.83;1.73;;;;;;;31.07;26.44;98026.88;10459536;28;20262;-77
2021/05/09 15:57:41;;;;;;;1.93;1.57;;;;;;;31.23;26.84;98023.50;10459019;28;20179;-77
2021/05/09 16:03:02;;;;;;;1.97;1.77;;;;;;;30.95;27.43;98019.94;10457630;28;20207;-77
2021/05/09 16:08:21;;;;;;;2.40;2.13;;;;;;;31.08;27.67;98011.34;10459025;28;20167;-77
2021/05/09 16:13:41;;;;;;;2.27;2.07;;;;;;;30.93;28.19;98009.16;10457542;28;20190;-77
2021/05/09 16:19:00;;;;;;;1.40;1.30;;;;;;;31.26;28.05;98011.00;10456159;28;20576;-77
2021/05/09 16:24:20;;;;;;;2.07;1.50;;;;;;;31.47;27.86;98008.00;10456982;28;20203;-77
2021/05/09 16:29:39;;;;;;;1.80;1.57;;;;;;;31.28;27.41;97996.22;10456525;28;20218;-77
2021/05/09 16:34:58;;;;;;;1.60;0.90;;;;;;;30.87;27.43;97993.59;10456892;28;20183;-78
2021/05/09 16:40:19;;;;;;;1.50;1.40;;;;;;;30.48;28.21;97996.84;10457638;28;20195;-78
2021/05/09 16:45:38;;;;;;;1.20;1.00;;;;;;;29.82;29.26;97992.16;10455892;28;21002;-77
2021/05/09 16:50:57;;;;;;;2.10;1.90;;;;;;;29.37;30.05;97996.66;10456315;28;20175;-78
2021/05/09 16:56:16;;;;;;;2.53;2.33;;;;;;;29.14;30.31;97987.91;10456306;28;20180;-77
2021/05/09 17:01:35;;;;;;;2.80;2.37;;;;;;;28.61;30.33;97980.06;10454696;28;20590;-77
2021/05/09 17:06:54;;;;;;;2.40;1.80;;;;;;;28.59;30.33;97982.66;10456383;28;20673;-77
2021/05/09 17:12:18;;;;;;;1.40;1.30;;;;;;;28.85;30.09;97985.47;10455769;28;20642;-77
2021/05/09 17:17:38;;;;;;;1.90;1.33;;;;;;;30.13;28.67;97979.75;10455364;28;20171;-77
2021/05/09 17:22:57;;;;;;;1.40;1.30;;;;;;;31.51;26.90;97977.09;10456118;28;20595;-77
2021/05/09 17:28:17;;;;;;;1.30;1.20;;;;;;;32.01;26.35;97966.34;10454217;28;20219;-77
2021/05/09 17:33:35;;;;;;;1.50;1.40;;;;;;;32.35;26.69;97968.78;10453914;28;20179;-78
2021/05/09 17:38:54;;;;;;;1.50;1.33;;;;;;;32.12;26.78;97970.91;10454910;28;20666;-79
2021/05/09 17:44:14;;;;;;;1.43;1.13;;;;;;;32.36;27.24;97962.50;10454735;28;20565;-78
2021/05/09 17:49:34;;;;;;;1.97;1.87;;;;;;;30.94;29.38;97961.63;10454613;28;20208;-77
2021/05/09 17:54:54;;;;;;;1.70;1.60;;;;;;;29.01;32.90;97958.84;10454816;28;20167;-78
2021/05/09 18:00:14;;;;;;;1.60;1.50;;;;;;;27.72;35.05;97958.94;10455655;28;20175;-77
2021/05/09 18:05:34;;;;;;;1.80;1.53;;;;;;;26.87;36.13;97959.28;10455096;28;20668;-77
2021/05/09 18:10:53;;;;;;;2.13;1.93;;;;;;;26.41;37.62;97958.88;10455496;28;20211;-77
2021/05/09 18:16:27;;;;;;;2.13;1.93;;;;;;;26.10;38.11;97953.09;10452891;28;20640;-77
2021/05/09 18:27:24;;;;;;;2.73;1.57;;;;;;;25.17;41.50;97951.94;10454395;28;20223;-77
2021/05/09 18:32:43;;;;;;;2.00;1.80;;;;;;;24.87;42.76;97955.22;10452646;28;20175;-77
2021/05/09 18:38:02;;;;;;;1.40;1.10;;;;;;;24.50;44.55;97954.91;10455702;28;20192;-78
2021/05/09 18:43:21;;;;;;;2.53;1.30;;;;;;;24.15;46.11;97964.00;10461214;28;20207;-78
2021/05/09 18:48:41;;;;;;;3.43;1.57;;;;;;;23.87;46.72;97959.75;10460955;28;20183;-78
2021/05/09 18:54:00;;;;;;;13.53;1.40;;;;;;;23.70;47.31;97963.84;10461989;28;20258;-77
2021/05/09 18:59:21;;;;;;;2.27;1.60;;;;;;;23.44;48.12;97963.38;10460844;28;20175;-77
2021/05/09 19:04:40;;;;;;;1.40;1.30;;;;;;;23.28;48.77;97968.97;10460086;28;20203;-77
2021/05/09 19:09:59;;;;;;;1.60;1.50;;;;;;;23.05;49.20;97976.66;10461553;28;20218;-78
2021/05/09 19:15:18;;;;;;;2.40;1.80;;;;;;;22.75;49.96;97957.97;10461164;28;20207;-78
2021/05/09 19:20:38;;;;;;;1.87;1.70;;;;;;;22.58;50.77;97971.19;10461124;28;20631;-78
2021/05/09 19:25:57;;;;;;;1.70;1.60;;;;;;;22.39;50.86;97967.28;10460296;28;20678;-78
2021/05/09 19:31:16;;;;;;;2.10;1.90;;;;;;;22.22;51.19;97977.63;10459455;28;20641;-78
2021/05/09 19:36:35;;;;;;;1.70;1.60;;;;;;;22.00;51.54;97979.59;10460441;28;20203;-78
2021/05/09 19:41:55;;;;;;;1.40;1.23;;;;;;;21.84;52.00;97983.81;10459250;28;20179;-79
2021/05/09 19:47:14;;;;;;;2.00;1.90;;;;;;;21.72;52.26;97981.44;10458836;28;20580;-79
2021/05/09 19:52:33;;;;;;;1.80;1.70;;;;;;;21.52;53.37;97980.78;10459302;28;20175;-78
2021/05/09 19:57:52;;;;;;;2.53;2.30;;;;;;;21.39;53.30;97978.41;10459572;28;20638;-77
2021/05/09 20:03:10;;;;;;;2.57;2.37;;;;;;;21.24;54.43;97982.63;10457848;28;20203;-78
2021/05/09 20:08:29;;;;;;;3.83;2.27;;;;;;;21.04;55.37;97979.88;10459174;28;20183;-78
2021/05/09 20:13:49;;;;;;;2.43;2.23;;;;;;;20.86;56.24;97977.44;10458928;28;20610;-77
2021/05/09 20:19:08;;;;;;;2.10;1.60;;;;;;;20.67;57.45;97973.41;10456412;28;20206;-78
2021/05/09 20:24:27;;;;;;;2.20;1.97;;;;;;;20.44;59.51;97980.00;10458289;28;20214;-76
2021/05/09 20:29:46;;;;;;;2.37;1.60;;;;;;;20.16;60.77;97980.94;10457726;28;20227;-77
2021/05/09 20:35:05;;;;;;;4.80;2.00;;;;;;;19.92;61.19;97974.00;10456933;28;20653;-76
2021/05/09 20:40:25;;;;;;;3.03;2.17;;;;;;;19.74;62.58;97980.63;10457867;28;20681;-77
2021/05/09 20:45:44;;;;;;;1.97;1.87;;;;;;;19.58;63.46;97985.94;10455890;28;20578;-76
2021/05/09 20:51:04;;;;;;;2.20;1.90;;;;;;;19.48;64.42;97990.91;10456388;28;20664;-76
2021/05/09 20:56:23;;;;;;;1.60;1.50;;;;;;;19.03;65.08;97990.63;10457447;28;20193;-76
2021/05/09 21:01:42;;;;;;;2.23;1.80;;;;;;;18.92;67.71;97984.88;10454207;28;20254;-78
2021/05/09 21:07:02;;;;;;;2.77;1.60;;;;;;;18.70;68.12;97989.25;10456582;28;20206;-77
2021/05/09 21:12:21;;;;;;;3.13;1.70;;;;;;;18.57;67.23;97977.63;10456966;28;20618;-77
2021/05/09 21:17:40;;;;;;;2.63;2.40;;;;;;;18.44;69.37;97980.69;10455283;28;20257;-76
2021/05/09 21:22:59;;;;;;;2.40;1.93;;;;;;;18.25;70.73;97978.53;10456337;28;20207;-77
2021/05/09 21:28:18;;;;;;;2.50;1.60;;;;;;;18.11;71.71;97970.13;10455845;28;20219;-77
2021/05/09 21:33:37;;;;;;;2.07;1.87;;;;;;;17.97;71.34;97971.59;10454926;28;20183;-76
2021/05/09 21:38:56;;;;;;;3.20;1.90;;;;;;;17.81;73.32;97976.84;10454919;28;20192;-76
2021/05/09 21:44:15;;;;;;;2.80;2.17;;;;;;;17.68;74.93;97967.97;10454886;28;20206;-77
2021/05/09 21:49:34;;;;;;;1.53;1.40;;;;;;;17.44;74.58;97969.94;10454707;28;20257;-76
2021/05/09 21:54:52;;;;;;;2.37;2.07;;;;;;;17.49;76.13;97974.84;10454713;28;20592;-77
2021/05/09 22:00:29;;;;;;;10.70;3.30;;;;;;;17.24;77.44;97978.03;10454796;28;20187;-77
2021/05/09 22:05:50;;;;;;;2.67;1.67;;;;;;;17.04;78.03;97983.34;10455071;28;20250;-77
2021/05/09 22:11:09;;;;;;;1.47;1.30;;;;;;;16.94;78.72;97987.41;10456153;28;20279;-77
2021/05/09 22:16:28;;;;;;;2.20;2.00;;;;;;;16.66;80.65;97978.81;10462401;28;20183;-77
2021/05/09 22:21:47;;;;;;;2.20;2.00;;;;;;;16.41;80.49;97979.16;10462014;28;20179;-76
2021/05/09 22:27:06;;;;;;;3.20;2.43;;;;;;;16.31;81.75;97980.44;10461238;28;20234;-77
2021/05/09 22:32:25;;;;;;;2.77;2.53;;;;;;;16.29;84.67;97980.09;10461870;28;20254;-75
2021/05/09 22:37:45;;;;;;;2.70;2.50;;;;;;;16.02;86.83;97977.28;10461816;28;20199;-76
2021/05/09 22:43:04;;;;;;;4.07;2.13;;;;;;;16.00;85.18;97986.09;10461463;28;20199;-77
2021/05/09 22:48:23;;;;;;;4.63;1.80;;;;;;;16.02;84.21;97985.63;10461212;28;20175;-77
2021/05/09 22:53:42;;;;;;;1.80;1.50;;;;;;;15.89;85.03;97979.44;10460905;28;20171;-76
2021/05/09 22:59:01;;;;;;;2.17;1.67;;;;;;;15.76;84.97;97981.56;10462226;28;20288;-75
2021/05/09 23:04:21;;;;;;;3.00;2.03;;;;;;;15.62;84.95;97993.25;10460327;28;20215;-76
2021/05/09 23:09:40;;;;;;;2.73;2.30;;;;;;;15.61;87.41;98008.34;10461751;28;20574;-76
2021/05/09 23:15:00;;;;;;;2.60;2.30;;;;;;;15.44;86.94;97973.81;10459825;28;20622;-75
2021/05/09 23:25:38;;;;;;;1.90;1.80;;;;;;;15.32;87.94;97980.25;10459233;28;20207;-75
2021/05/09 23:30:57;;;;;;;2.10;1.90;;;;;;;15.39;88.60;97993.81;10459463;28;20175;-75
2021/05/09 23:36:16;;;;;;;5.57;2.23;;;;;;;15.09;89.38;97988.25;10459604;28;20195;-75
2021/05/09 23:41:35;;;;;;;2.30;2.10;;;;;;;14.89;92.30;97992.63;10459905;28;20209;-75
2021/05/09 23:46:54;;;;;;;1.77;1.67;;;;;;;14.73;94.19;97979.00;10457423;28;20289;-77
2021/05/09 23:52:14;;;;;;;2.17;1.70;;;;;;;14.72;93.51;97991.28;10459892;28;20171;-76
2021/05/09 23:57:32;;;;;;;2.57;1.63;;;;;;;14.74;92.90;97980.56;10458834;28;20179;-75
